sensor_id;sensor_type;location;lat;lon;timestamp;temperature;humidity
20831;DHT22;10576;53.556;9.868;2023-02-08T00:07:08;-1.60;99.90
20831;DHT22;10576;53.556;9.868;2023-02-08T00:12:00;-1.50;99.90
20831;DHT22;10576;53.556;9.868;2023-02-08T00:16:51;-1.60;99.90
20831;DHT22;10576;53.556;9.868;2023-02-08T00:21:43;-1.70;99.90
20831;DHT22;10576;53.556;9.868;2023-02-08T00:26:35;-1.90;99.90
20831;DHT22;10576;53.556;9.868;2023-02-08T00:31:26;-1.90;99.90
20831;DHT22;10576;53.556;9.868;2023-02-08T00:41:10;-1.90;99.90
20831;DHT22;10576;53.556;9.868;2023-02-08T00:55:52;-1.90;99.90
20831;DHT22;10576;53.556;9.868;2023-02-08T01:10:29;-1.80;99.90
20831;DHT22;10576;53.556;9.868;2023-02-08T01:20:13;-1.80;99.90
20831;DHT22;10576;53.556;9.868;2023-02-08T01:29:57;-1.90;99.90
20831;DHT22;10576;53.556;9.868;2023-02-08T01:34:48;-2.00;99.90
20831;DHT22;10576;53.556;9.868;2023-02-08T01:39:41;-2.00;99.90
20831;DHT22;10576;53.556;9.868;2023-02-08T01:42:13;-2.00;99.90
20831;DHT22;10576;53.556;9.868;2023-02-08T01:50:14;-2.10;99.90
20831;DHT22;10576;53.556;9.868;2023-02-08T01:52:42;-2.10;99.90
20831;DHT22;10576;53.556;9.868;2023-02-08T01:55:17;-2.10;99.90
20831;DHT22;10576;53.556;9.868;2023-02-08T02:10:08;-2.10;99.90
20831;DHT22;10576;53.556;9.868;2023-02-08T02:17:29;-2.10;99.90
20831;DHT22;10576;53.556;9.868;2023-02-08T02:46:36;-2.20;99.90
20831;DHT22;10576;53.556;9.868;2023-02-08T02:49:30;-2.30;99.90
20831;DHT22;10576;53.556;9.868;2023-02-08T02:52:05;-2.20;99.90
20831;DHT22;10576;53.556;9.868;2023-02-08T02:57:07;-1.60;99.90
20831;DHT22;10576;53.556;9.868;2023-02-08T02:59:36;-2.30;99.90
20831;DHT22;10576;53.556;9.868;2023-02-08T03:15:02;-2.10;99.90
20831;DHT22;10576;53.556;9.868;2023-02-08T03:20:24;-2.00;99.90
20831;DHT22;10576;53.556;9.868;2023-02-08T03:25:22;-2.20;99.90
20831;DHT22;10576;53.556;9.868;2023-02-08T03:28:16;-2.20;99.90
20831;DHT22;10576;53.556;9.868;2023-02-08T03:33:22;-2.30;99.90
20831;DHT22;10576;53.556;9.868;2023-02-08T03:35:56;-2.30;99.90
20831;DHT22;10576;53.556;9.868;2023-02-08T03:38:27;-2.30;99.90
20831;DHT22;10576;53.556;9.868;2023-02-08T03:40:55;-2.30;99.90
20831;DHT22;10576;53.556;9.868;2023-02-08T03:43:27;-2.10;99.90
20831;DHT22;10576;53.556;9.868;2023-02-08T03:48:46;-2.30;99.90
20831;DHT22;10576;53.556;9.868;2023-02-08T03:51:14;-2.30;99.90
20831;DHT22;10576;53.556;9.868;2023-02-08T04:01:19;-2.30;99.90
20831;DHT22;10576;53.556;9.868;2023-02-08T04:03:47;-2.30;99.90
20831;DHT22;10576;53.556;9.868;2023-02-08T04:08:40;-2.30;99.90
20831;DHT22;10576;53.556;9.868;2023-02-08T04:13:32;-2.70;99.90
20831;DHT22;10576;53.556;9.868;2023-02-08T04:18:24;-2.60;99.90
20831;DHT22;10576;53.556;9.868;2023-02-08T04:23:15;-2.60;99.90
20831;DHT22;10576;53.556;9.868;2023-02-08T04:28:07;-2.50;99.90
20831;DHT22;10576;53.556;9.868;2023-02-08T04:32:59;-2.40;99.90
20831;DHT22;10576;53.556;9.868;2023-02-08T04:42:43;-2.60;99.90
20831;DHT22;10576;53.556;9.868;2023-02-08T04:47:35;-2.70;99.90
20831;DHT22;10576;53.556;9.868;2023-02-08T04:52:26;-2.60;99.90
20831;DHT22;10576;53.556;9.868;2023-02-08T04:54:52;-2.50;99.90
20831;DHT22;10576;53.556;9.868;2023-02-08T04:59:45;-2.60;99.90
20831;DHT22;10576;53.556;9.868;2023-02-08T05:09:29;-2.50;99.90
20831;DHT22;10576;53.556;9.868;2023-02-08T05:19:12;-2.40;99.90
20831;DHT22;10576;53.556;9.868;2023-02-08T05:24:05;-2.40;99.90
20831;DHT22;10576;53.556;9.868;2023-02-08T05:28:57;-2.40;99.90
20831;DHT22;10576;53.556;9.868;2023-02-08T05:31:24;-2.50;99.90
20831;DHT22;10576;53.556;9.868;2023-02-08T05:33:51;-2.40;99.90
20831;DHT22;10576;53.556;9.868;2023-02-08T05:36:18;-2.40;99.90
20831;DHT22;10576;53.556;9.868;2023-02-08T05:38:44;-2.40;99.90
20831;DHT22;10576;53.556;9.868;2023-02-08T05:43:37;-2.40;99.90
20831;DHT22;10576;53.556;9.868;2023-02-08T05:48:30;-2.50;99.90
20831;DHT22;10576;53.556;9.868;2023-02-08T05:53:23;-2.50;99.90
20831;DHT22;10576;53.556;9.868;2023-02-08T06:00:42;-2.40;99.90
20831;DHT22;10576;53.556;9.868;2023-02-08T06:05:36;-2.70;99.90
20831;DHT22;10576;53.556;9.868;2023-02-08T06:10:28;-2.50;99.90
20831;DHT22;10576;53.556;9.868;2023-02-08T06:20:12;-2.50;99.90
20831;DHT22;10576;53.556;9.868;2023-02-08T06:25:04;-2.50;99.90
20831;DHT22;10576;53.556;9.868;2023-02-08T06:29:55;-2.50;99.90
20831;DHT22;10576;53.556;9.868;2023-02-08T06:37:16;-2.40;99.90
20831;DHT22;10576;53.556;9.868;2023-02-08T06:44:33;-2.60;99.90
20831;DHT22;10576;53.556;9.868;2023-02-08T06:49:25;-2.40;99.90
20831;DHT22;10576;53.556;9.868;2023-02-08T06:56:43;-2.60;99.90
20831;DHT22;10576;53.556;9.868;2023-02-08T07:01:34;-2.60;99.90
20831;DHT22;10576;53.556;9.868;2023-02-08T07:06:26;-2.70;99.90
20831;DHT22;10576;53.556;9.868;2023-02-08T07:16:12;-2.60;99.90
20831;DHT22;10576;53.556;9.868;2023-02-08T07:30:49;-2.50;99.90
20831;DHT22;10576;53.556;9.868;2023-02-08T07:35:41;-2.30;99.90
20831;DHT22;10576;53.556;9.868;2023-02-08T07:40:33;-2.10;99.90
20831;DHT22;10576;53.556;9.868;2023-02-08T07:45:25;-2.20;99.90
20831;DHT22;10576;53.556;9.868;2023-02-08T07:55:11;-2.10;99.90
20831;DHT22;10576;53.556;9.868;2023-02-08T07:57:42;-2.00;99.90
20831;DHT22;10576;53.556;9.868;2023-02-08T08:02:34;-1.90;99.90
20831;DHT22;10576;53.556;9.868;2023-02-08T08:07:26;-1.80;99.90
20831;DHT22;10576;53.556;9.868;2023-02-08T08:12:17;-1.80;99.90
20831;DHT22;10576;53.556;9.868;2023-02-08T08:17:09;-1.60;99.90
20831;DHT22;10576;53.556;9.868;2023-02-08T08:22:01;-1.60;99.90
20831;DHT22;10576;53.556;9.868;2023-02-08T08:26:52;-1.40;99.90
20831;DHT22;10576;53.556;9.868;2023-02-08T08:31:44;-1.30;99.90
20831;DHT22;10576;53.556;9.868;2023-02-08T08:36:36;-1.10;99.90
20831;DHT22;10576;53.556;9.868;2023-02-08T08:41:28;-0.80;99.90
20831;DHT22;10576;53.556;9.868;2023-02-08T08:46:19;-0.50;99.90
20831;DHT22;10576;53.556;9.868;2023-02-08T08:51:12;-0.10;99.90
20831;DHT22;10576;53.556;9.868;2023-02-08T09:00:58;0.60;99.90
20831;DHT22;10576;53.556;9.868;2023-02-08T09:05:51;0.90;99.90
20831;DHT22;10576;53.556;9.868;2023-02-08T09:10:43;1.40;99.90
20831;DHT22;10576;53.556;9.868;2023-02-08T09:20:31;1.90;99.90
20831;DHT22;10576;53.556;9.868;2023-02-08T09:25:23;2.00;99.90
20831;DHT22;10576;53.556;9.868;2023-02-08T09:35:07;2.20;99.90
20831;DHT22;10576;53.556;9.868;2023-02-08T09:47:33;2.30;99.90
20831;DHT22;10576;53.556;9.868;2023-02-08T09:52:39;2.20;99.90
20831;DHT22;10576;53.556;9.868;2023-02-08T09:55:36;2.10;99.90
20831;DHT22;10576;53.556;9.868;2023-02-08T10:00:44;2.40;99.90
20831;DHT22;10576;53.556;9.868;2023-02-08T10:03:41;2.30;99.90
20831;DHT22;10576;53.556;9.868;2023-02-08T10:06:14;2.30;99.90
20831;DHT22;10576;53.556;9.868;2023-02-08T10:08:42;2.30;99.90
20831;DHT22;10576;53.556;9.868;2023-02-08T10:17:01;2.40;99.90
20831;DHT22;10576;53.556;9.868;2023-02-08T10:35:47;2.20;99.90
20831;DHT22;10576;53.556;9.868;2023-02-08T10:40:54;2.00;99.90
20831;DHT22;10576;53.556;9.868;2023-02-08T10:51:35;2.30;99.90
20831;DHT22;10576;53.556;9.868;2023-02-08T10:54:01;2.30;99.90
20831;DHT22;10576;53.556;9.868;2023-02-08T10:56:38;2.40;99.90
20831;DHT22;10576;53.556;9.868;2023-02-08T11:01:57;2.60;99.90
20831;DHT22;10576;53.556;9.868;2023-02-08T11:11:49;2.50;99.90
20831;DHT22;10576;53.556;9.868;2023-02-08T11:19:38;2.90;99.90
20831;DHT22;10576;53.556;9.868;2023-02-08T11:40:04;3.10;99.90
20831;DHT22;10576;53.556;9.868;2023-02-08T11:42:35;3.20;99.90
20831;DHT22;10576;53.556;9.868;2023-02-08T11:47:33;3.20;99.90
20831;DHT22;10576;53.556;9.868;2023-02-08T11:50:07;3.00;99.90
20831;DHT22;10576;53.556;9.868;2023-02-08T11:52:39;2.90;99.90
20831;DHT22;10576;53.556;9.868;2023-02-08T12:03:01;2.90;99.90
20831;DHT22;10576;53.556;9.868;2023-02-08T12:13:57;3.30;99.90
20831;DHT22;10576;53.556;9.868;2023-02-08T12:19:59;3.50;99.90
20831;DHT22;10576;53.556;9.868;2023-02-08T12:22:29;3.60;99.90
20831;DHT22;10576;53.556;9.868;2023-02-08T12:25:19;3.60;99.90
20831;DHT22;10576;53.556;9.868;2023-02-08T12:42:05;3.80;99.90
20831;DHT22;10576;53.556;9.868;2023-02-08T12:53:08;3.90;99.90
20831;DHT22;10576;53.556;9.868;2023-02-08T12:55:37;4.00;99.90
20831;DHT22;10576;53.556;9.868;2023-02-08T13:00:45;4.00;99.90
20831;DHT22;10576;53.556;9.868;2023-02-08T13:03:31;4.10;99.90
20831;DHT22;10576;53.556;9.868;2023-02-08T13:06:03;4.20;99.90
20831;DHT22;10576;53.556;9.868;2023-02-08T13:11:26;4.20;99.90
20831;DHT22;10576;53.556;9.868;2023-02-08T13:14:10;4.30;99.90
20831;DHT22;10576;53.556;9.868;2023-02-08T13:16:42;4.30;99.90
20831;DHT22;10576;53.556;9.868;2023-02-08T13:19:32;4.30;99.90
20831;DHT22;10576;53.556;9.868;2023-02-08T13:24:38;4.10;99.90
20831;DHT22;10576;53.556;9.868;2023-02-08T13:27:05;4.40;99.90
20831;DHT22;10576;53.556;9.868;2023-02-08T13:32:04;4.60;99.90
20831;DHT22;10576;53.556;9.868;2023-02-08T13:34:44;4.50;99.90
20831;DHT22;10576;53.556;9.868;2023-02-08T13:39:45;4.60;99.90
20831;DHT22;10576;53.556;9.868;2023-02-08T13:42:39;4.70;99.90
20831;DHT22;10576;53.556;9.868;2023-02-08T13:47:44;4.70;99.90
20831;DHT22;10576;53.556;9.868;2023-02-08T14:00:31;4.80;99.90
20831;DHT22;10576;53.556;9.868;2023-02-08T14:14:17;4.80;99.90
20831;DHT22;10576;53.556;9.868;2023-02-08T14:21:49;4.70;99.90
20831;DHT22;10576;53.556;9.868;2023-02-08T14:24:27;5.10;99.90
20831;DHT22;10576;53.556;9.868;2023-02-08T14:29:33;4.80;99.90
20831;DHT22;10576;53.556;9.868;2023-02-08T14:31:59;4.80;99.90
20831;DHT22;10576;53.556;9.868;2023-02-08T14:34:31;4.70;99.90
20831;DHT22;10576;53.556;9.868;2023-02-08T14:37:28;4.70;99.90
20831;DHT22;10576;53.556;9.868;2023-02-08T14:43:01;4.80;99.90
20831;DHT22;10576;53.556;9.868;2023-02-08T14:48:15;4.90;99.90
20831;DHT22;10576;53.556;9.868;2023-02-08T15:01:41;4.90;99.90
20831;DHT22;10576;53.556;9.868;2023-02-08T15:04:08;4.80;99.90
20831;DHT22;10576;53.556;9.868;2023-02-08T15:09:13;4.80;99.90
20831;DHT22;10576;53.556;9.868;2023-02-08T15:11:40;4.60;99.90
20831;DHT22;10576;53.556;9.868;2023-02-08T15:16:35;4.60;99.90
20831;DHT22;10576;53.556;9.868;2023-02-08T15:19:05;4.70;99.90
20831;DHT22;10576;53.556;9.868;2023-02-08T15:21:32;4.80;99.90
20831;DHT22;10576;53.556;9.868;2023-02-08T15:24:04;4.80;99.90
20831;DHT22;10576;53.556;9.868;2023-02-08T15:28:59;4.60;99.90
20831;DHT22;10576;53.556;9.868;2023-02-08T15:33:58;4.50;99.90
20831;DHT22;10576;53.556;9.868;2023-02-08T15:36:31;4.50;99.90
20831;DHT22;10576;53.556;9.868;2023-02-08T15:39:09;4.50;99.90
20831;DHT22;10576;53.556;9.868;2023-02-08T15:41:35;4.40;99.90
20831;DHT22;10576;53.556;9.868;2023-02-08T15:51:27;4.20;99.90
20831;DHT22;10576;53.556;9.868;2023-02-08T15:53:54;4.10;99.90
20831;DHT22;10576;53.556;9.868;2023-02-08T15:56:28;4.10;99.90
20831;DHT22;10576;53.556;9.868;2023-02-08T15:58:57;4.00;99.90
20831;DHT22;10576;53.556;9.868;2023-02-08T16:01:24;3.90;99.90
20831;DHT22;10576;53.556;9.868;2023-02-08T16:06:26;3.90;99.90
20831;DHT22;10576;53.556;9.868;2023-02-08T16:08:55;3.80;99.90
20831;DHT22;10576;53.556;9.868;2023-02-08T16:13:50;3.80;99.90
20831;DHT22;10576;53.556;9.868;2023-02-08T16:18:58;3.60;99.90
20831;DHT22;10576;53.556;9.868;2023-02-08T16:26:44;3.50;99.90
20831;DHT22;10576;53.556;9.868;2023-02-08T16:29:19;3.60;99.90
20831;DHT22;10576;53.556;9.868;2023-02-08T16:31:47;3.60;99.90
20831;DHT22;10576;53.556;9.868;2023-02-08T16:34:20;3.40;99.90
20831;DHT22;10576;53.556;9.868;2023-02-08T16:44:35;3.20;99.90
20831;DHT22;10576;53.556;9.868;2023-02-08T16:51:57;3.20;99.90
20831;DHT22;10576;53.556;9.868;2023-02-08T16:54:23;3.20;99.90
20831;DHT22;10576;53.556;9.868;2023-02-08T16:59:22;3.10;99.90
20831;DHT22;10576;53.556;9.868;2023-02-08T17:09:11;3.00;99.90
20831;DHT22;10576;53.556;9.868;2023-02-08T17:14:04;3.00;99.90
20831;DHT22;10576;53.556;9.868;2023-02-08T17:16:31;2.90;99.90
20831;DHT22;10576;53.556;9.868;2023-02-08T17:18:58;2.90;99.90
20831;DHT22;10576;53.556;9.868;2023-02-08T17:28:47;2.70;99.90
20831;DHT22;10576;53.556;9.868;2023-02-08T17:33:41;2.60;99.90
20831;DHT22;10576;53.556;9.868;2023-02-08T17:38:39;2.50;99.90
20831;DHT22;10576;53.556;9.868;2023-02-08T17:48:27;2.30;99.90
20831;DHT22;10576;53.556;9.868;2023-02-08T17:53:19;2.30;99.90
20831;DHT22;10576;53.556;9.868;2023-02-08T17:55:45;2.30;99.90
20831;DHT22;10576;53.556;9.868;2023-02-08T18:00:37;2.20;99.90
20831;DHT22;10576;53.556;9.868;2023-02-08T18:10:23;2.10;99.90
20831;DHT22;10576;53.556;9.868;2023-02-08T18:15:20;1.90;99.90
20831;DHT22;10576;53.556;9.868;2023-02-08T18:20:13;2.00;99.90
20831;DHT22;10576;53.556;9.868;2023-02-08T18:22:40;1.90;99.90
20831;DHT22;10576;53.556;9.868;2023-02-08T18:29:59;1.80;99.90
20831;DHT22;10576;53.556;9.868;2023-02-08T18:32:25;1.80;99.90
20831;DHT22;10576;53.556;9.868;2023-02-08T18:49:34;1.60;99.90
20831;DHT22;10576;53.556;9.868;2023-02-08T18:52:07;1.60;99.90
20831;DHT22;10576;53.556;9.868;2023-02-08T18:56:59;1.40;99.90
20831;DHT22;10576;53.556;9.868;2023-02-08T19:01:51;1.50;99.90
20831;DHT22;10576;53.556;9.868;2023-02-08T19:11:38;1.30;99.90
20831;DHT22;10576;53.556;9.868;2023-02-08T19:16:33;1.20;99.90
20831;DHT22;10576;53.556;9.868;2023-02-08T19:23:53;1.20;99.90
20831;DHT22;10576;53.556;9.868;2023-02-08T19:26:23;1.20;99.90
20831;DHT22;10576;53.556;9.868;2023-02-08T19:28:51;1.10;99.90
20831;DHT22;10576;53.556;9.868;2023-02-08T19:31:21;1.20;99.90
20831;DHT22;10576;53.556;9.868;2023-02-08T19:33:49;1.10;99.90
20831;DHT22;10576;53.556;9.868;2023-02-08T19:36:18;1.20;99.90
20831;DHT22;10576;53.556;9.868;2023-02-08T19:41:14;1.00;99.90
20831;DHT22;10576;53.556;9.868;2023-02-08T19:46:11;1.00;99.90
20831;DHT22;10576;53.556;9.868;2023-02-08T19:55:58;0.90;99.90
20831;DHT22;10576;53.556;9.868;2023-02-08T20:05:43;0.70;99.90
20831;DHT22;10576;53.556;9.868;2023-02-08T20:10:39;0.90;99.90
20831;DHT22;10576;53.556;9.868;2023-02-08T20:20:29;0.60;99.90
20831;DHT22;10576;53.556;9.868;2023-02-08T20:25:22;0.50;99.90
20831;DHT22;10576;53.556;9.868;2023-02-08T20:30:14;0.40;99.90
20831;DHT22;10576;53.556;9.868;2023-02-08T20:35:10;0.40;99.90
20831;DHT22;10576;53.556;9.868;2023-02-08T20:44:54;0.30;99.90
20831;DHT22;10576;53.556;9.868;2023-02-08T20:49:50;0.30;99.90
20831;DHT22;10576;53.556;9.868;2023-02-08T20:57:09;0.20;99.90
20831;DHT22;10576;53.556;9.868;2023-02-08T20:59:36;0.30;99.90
20831;DHT22;10576;53.556;9.868;2023-02-08T21:02:03;0.30;99.90
20831;DHT22;10576;53.556;9.868;2023-02-08T21:06:58;0.30;99.90
20831;DHT22;10576;53.556;9.868;2023-02-08T21:21:40;0.00;99.90
20831;DHT22;10576;53.556;9.868;2023-02-08T21:26:32;0.10;99.90
20831;DHT22;10576;53.556;9.868;2023-02-08T21:31:24;0.00;99.90
20831;DHT22;10576;53.556;9.868;2023-02-08T21:33:51;0.00;99.90
20831;DHT22;10576;53.556;9.868;2023-02-08T21:41:25;-0.20;99.90
20831;DHT22;10576;53.556;9.868;2023-02-08T21:43:58;-0.10;99.90
20831;DHT22;10576;53.556;9.868;2023-02-08T21:46:24;0.00;99.90
20831;DHT22;10576;53.556;9.868;2023-02-08T21:51:37;-0.10;99.90
20831;DHT22;10576;53.556;9.868;2023-02-08T21:57:23;-0.20;99.90
20831;DHT22;10576;53.556;9.868;2023-02-08T22:02:24;-0.30;99.90
20831;DHT22;10576;53.556;9.868;2023-02-08T22:04:52;-0.30;99.90
20831;DHT22;10576;53.556;9.868;2023-02-08T22:10:07;-0.30;99.90
20831;DHT22;10576;53.556;9.868;2023-02-08T22:17:25;-0.40;99.90
20831;DHT22;10576;53.556;9.868;2023-02-08T22:22:17;-0.40;99.90
20831;DHT22;10576;53.556;9.868;2023-02-08T22:27:09;-0.40;99.90
20831;DHT22;10576;53.556;9.868;2023-02-08T22:32:01;-0.50;99.90
20831;DHT22;10576;53.556;9.868;2023-02-08T22:36:52;-0.40;99.90
20831;DHT22;10576;53.556;9.868;2023-02-08T22:41:44;-0.40;99.90
20831;DHT22;10576;53.556;9.868;2023-02-08T22:51:28;-0.50;99.90
20831;DHT22;10576;53.556;9.868;2023-02-08T22:53:54;-0.50;99.90
20831;DHT22;10576;53.556;9.868;2023-02-08T23:01:14;-0.50;99.90
20831;DHT22;10576;53.556;9.868;2023-02-08T23:03:41;-0.50;99.90
20831;DHT22;10576;53.556;9.868;2023-02-08T23:06:09;-0.50;99.90
20831;DHT22;10576;53.556;9.868;2023-02-08T23:11:04;-0.50;99.90
20831;DHT22;10576;53.556;9.868;2023-02-08T23:15:56;-0.60;99.90
20831;DHT22;10576;53.556;9.868;2023-02-08T23:20:48;-0.40;99.90
20831;DHT22;10576;53.556;9.868;2023-02-08T23:23:14;-0.60;99.90
20831;DHT22;10576;53.556;9.868;2023-02-08T23:25:41;-0.40;99.90
20831;DHT22;10576;53.556;9.868;2023-02-08T23:28:08;-0.60;99.90
20831;DHT22;10576;53.556;9.868;2023-02-08T23:37:52;-0.80;99.90
20831;DHT22;10576;53.556;9.868;2023-02-08T23:42:43;-0.80;99.90
20831;DHT22;10576;53.556;9.868;2023-02-08T23:47:36;-0.60;99.90
20831;DHT22;10576;53.556;9.868;2023-02-08T23:52:28;-0.60;99.90
20831;DHT22;10576;53.556;9.868;2023-02-08T23:54:54;-0.80;99.90
20831;DHT22;10576;53.556;9.868;2023-02-08T23:59:45;-0.90;99.90
